Time;durP1;ratioP1;P1;durP2;ratioP2;P2;SDS_P1;SDS_P2;PMS_P1;PMS_P2;Temp;Humidity;BMP_temperature;BMP_pressure;BME280_temperature;BME280_humidity;BME280_pressure;Samples;Min_cycle;Max_cycle;Signal;HPM_P1;HPM_P2
2022/01/19 00:01:50;;;;;;;67.97;31.27;;;5.10;99.90;;;;;;4975889;28;20038;-77
2022/01/19 00:04:15;;;;;;;66.50;29.35;;;5.10;99.90;;;;;;4997471;28;20117;-78
2022/01/19 00:06:41;;;;;;;58.47;26.65;;;5.10;99.90;;;;;;4978704;28;20054;-77
2022/01/19 00:09:07;;;;;;;61.35;26.35;;;5.10;99.90;;;;;;5013692;28;20120;-77
2022/01/19 00:11:32;;;;;;;67.65;30.80;;;5.10;99.90;;;;;;4995850;28;20034;-77
2022/01/19 00:13:58;;;;;;;65.53;30.70;;;5.10;99.90;;;;;;4996127;28;20041;-77
2022/01/19 00:16:25;;;;;;;58.45;28.00;;;5.20;99.90;;;;;;4996458;28;20096;-78
2022/01/19 00:18:51;;;;;;;67.95;30.67;;;5.10;99.90;;;;;;4993878;28;20042;-77
2022/01/19 00:21:17;;;;;;;60.10;28.52;;;5.10;99.90;;;;;;4976680;28;20049;-77
2022/01/19 00:23:42;;;;;;;63.58;28.00;;;5.10;99.90;;;;;;5011506;28;20042;-77
2022/01/19 00:26:08;;;;;;;66.45;29.95;;;5.10;99.90;;;;;;4994872;28;20049;-77
2022/01/19 00:28:33;;;;;;;67.10;28.58;;;5.10;99.90;;;;;;4976084;28;20045;-77
2022/01/19 00:30:59;;;;;;;78.10;31.08;;;5.10;99.90;;;;;;5005742;28;20046;-78
2022/01/19 00:33:25;;;;;;;78.47;31.55;;;5.10;99.90;;;;;;4994036;28;20504;-77
2022/01/19 00:35:51;;;;;;;77.28;31.75;;;5.10;99.90;;;;;;4975289;28;20053;-77
2022/01/19 00:38:17;;;;;;;79.80;32.97;;;5.10;99.90;;;;;;4995297;28;20409;-77
2022/01/19 00:40:44;;;;;;;98.82;35.92;;;5.10;99.90;;;;;;4996656;28;20046;-77
2022/01/19 00:43:12;;;;;;;78.07;31.23;;;5.10;99.90;;;;;;5009127;28;20461;-77
2022/01/19 00:45:37;;;;;;;89.15;33.03;;;5.10;99.90;;;;;;4996111;28;20064;-77
2022/01/19 00:48:03;;;;;;;88.18;36.03;;;5.00;99.90;;;;;;4980203;28;20480;-77
2022/01/19 00:50:29;;;;;;;88.63;34.20;;;5.00;99.90;;;;;;4976835;28;20541;-77
2022/01/19 00:52:55;;;;;;;93.35;34.92;;;5.00;99.90;;;;;;4995536;28;20524;-77
2022/01/19 00:55:24;;;;;;;91.15;34.00;;;5.00;99.90;;;;;;4993722;28;20034;-77
2022/01/19 00:57:51;;;;;;;81.07;33.90;;;5.00;99.90;;;;;;4977239;28;20042;-77
2022/01/19 01:00:19;;;;;;;82.35;33.70;;;5.00;99.90;;;;;;4976227;28;20065;-77
2022/01/19 01:02:45;;;;;;;84.63;33.10;;;5.00;99.90;;;;;;4994610;28;20080;-77
2022/01/19 01:05:11;;;;;;;89.68;35.10;;;5.00;99.90;;;;;;4996107;28;20062;-77
2022/01/19 01:07:38;;;;;;;86.07;33.95;;;5.00;99.90;;;;;;4994707;28;20065;-77
2022/01/19 01:10:09;;;;;;;92.72;34.70;;;5.00;99.90;;;;;;4993466;28;20038;-77
2022/01/19 01:12:52;;;;;;;83.78;33.72;;;5.00;99.90;;;;;;4996806;28;20030;-77
2022/01/19 01:20:36;;;;;;;80.20;30.00;;;5.00;99.90;;;;;;5013848;28;20057;-77
2022/01/19 01:23:03;;;;;;;66.20;29.25;;;5.00;99.90;;;;;;4979310;28;20058;-77
2022/01/19 01:25:29;;;;;;;71.55;29.27;;;5.00;99.90;;;;;;4995277;28;20405;-77
2022/01/19 01:27:54;;;;;;;70.10;27.98;;;5.00;99.90;;;;;;4980112;28;20046;-77
2022/01/19 01:30:20;;;;;;;68.10;29.13;;;4.90;99.90;;;;;;4992482;28;20041;-77
2022/01/19 01:32:46;;;;;;;75.70;29.40;;;4.90;99.90;;;;;;4983951;28;20107;-77
2022/01/19 01:35:12;;;;;;;84.38;32.70;;;4.90;99.90;;;;;;5008591;28;20128;-77
2022/01/19 01:37:38;;;;;;;81.93;32.47;;;4.90;99.90;;;;;;4995693;28;20034;-77
2022/01/19 01:40:07;;;;;;;79.53;29.90;;;4.90;99.90;;;;;;5010531;28;20042;-77
2022/01/19 01:42:33;;;;;;;88.55;32.65;;;4.90;99.90;;;;;;4993211;28;20136;-77
2022/01/19 01:45:01;;;;;;;82.18;28.83;;;4.90;99.90;;;;;;5008059;28;20317;-77
2022/01/19 01:47:28;;;;;;;78.15;31.50;;;4.80;99.90;;;;;;5010050;28;20705;-77
2022/01/19 01:55:12;;;;;;;102.32;33.72;;;4.80;99.90;;;;;;5009823;28;20489;-77
2022/01/19 01:57:38;;;;;;;91.45;34.05;;;4.80;99.90;;;;;;4993394;28;20417;-77
2022/01/19 02:00:06;;;;;;;103.55;33.53;;;4.80;99.90;;;;;;4981779;28;20057;-77
2022/01/19 02:02:31;;;;;;;78.57;32.47;;;4.70;99.90;;;;;;4993441;28;20501;-77
2022/01/19 02:04:57;;;;;;;72.60;30.92;;;4.80;99.90;;;;;;4976286;28;20038;-77
2022/01/19 02:07:39;;;;;;;93.80;34.72;;;4.70;99.90;;;;;;4973825;28;20731;-77
2022/01/19 02:10:08;;;;;;;85.45;32.90;;;4.80;99.90;;;;;;5008886;28;20075;-77
2022/01/19 02:23:38;;;;;;;78.03;34.88;;;4.70;99.90;;;;;;5009431;28;20149;-77
2022/01/19 02:26:10;;;;;;;84.90;32.95;;;4.70;99.90;;;;;;4976164;28;20116;-76
2022/01/19 02:28:59;;;;;;;87.07;34.28;;;4.70;99.90;;;;;;4972216;28;20078;-77
2022/01/19 02:42:10;;;;;;;88.57;33.80;;;4.60;99.90;;;;;;5008343;28;20050;-77
2022/01/19 02:49:47;;;;;;;84.53;34.80;;;4.50;99.90;;;;;;4974791;28;20086;-77
2022/01/19 02:52:12;;;;;;;86.78;34.72;;;4.40;99.90;;;;;;4991282;28;20041;-77
2022/01/19 02:54:39;;;;;;;103.63;37.22;;;4.40;99.90;;;;;;4974924;28;20038;-77
2022/01/19 02:57:07;;;;;;;87.20;35.88;;;4.40;99.90;;;;;;4995167;28;20068;-77
2022/01/19 02:59:48;;;;;;;90.32;35.80;;;4.30;99.90;;;;;;4976721;28;20061;-77
2022/01/19 03:10:20;;;;;;;78.38;32.33;;;4.30;99.90;;;;;;4976538;28;20046;-77
2022/01/19 03:12:46;;;;;;;79.18;33.85;;;4.30;99.90;;;;;;4979745;28;20038;-77
2022/01/19 03:15:13;;;;;;;76.07;34.47;;;4.30;99.90;;;;;;4997360;28;20041;-77
2022/01/19 03:17:38;;;;;;;86.30;36.22;;;4.30;99.90;;;;;;4997694;28;20108;-77
2022/01/19 03:20:06;;;;;;;88.90;34.67;;;4.20;99.90;;;;;;4978392;28;20485;-77
2022/01/19 03:22:42;;;;;;;79.35;35.33;;;4.20;99.90;;;;;;5009428;28;20046;-76
2022/01/19 03:25:12;;;;;;;72.72;34.42;;;4.20;99.90;;;;;;5010762;28;20053;-76
2022/01/19 03:27:46;;;;;;;74.35;34.35;;;4.20;99.90;;;;;;4995911;28;20076;-77
2022/01/19 03:30:13;;;;;;;82.05;33.97;;;4.20;99.90;;;;;;5012030;28;20069;-77
2022/01/19 03:32:38;;;;;;;77.95;34.35;;;4.20;99.90;;;;;;4997020;28;20037;-76
2022/01/19 03:35:04;;;;;;;87.22;36.63;;;4.10;99.90;;;;;;5012295;28;20385;-76
2022/01/19 03:37:30;;;;;;;89.30;36.92;;;4.20;99.90;;;;;;4978427;28;20113;-77
2022/01/19 03:39:56;;;;;;;87.72;38.42;;;4.10;99.90;;;;;;5011853;28;20137;-77
2022/01/19 03:42:22;;;;;;;105.60;38.08;;;4.10;99.90;;;;;;4995505;28;20038;-77
2022/01/19 03:44:47;;;;;;;94.22;38.65;;;4.10;99.90;;;;;;4983240;28;20140;-77
2022/01/19 03:47:13;;;;;;;91.60;38.50;;;4.10;99.90;;;;;;5001649;28;20030;-77
2022/01/19 03:49:39;;;;;;;93.68;39.67;;;4.10;99.90;;;;;;5013633;28;20055;-77
2022/01/19 03:52:06;;;;;;;104.85;41.25;;;4.10;99.90;;;;;;4982866;28;20069;-77
2022/01/19 03:54:34;;;;;;;101.63;40.75;;;4.10;99.90;;;;;;4981627;28;20054;-77
2022/01/19 03:57:00;;;;;;;90.10;40.17;;;4.10;99.90;;;;;;5013220;28;20045;-77
2022/01/19 03:59:26;;;;;;;84.68;37.05;;;4.10;99.90;;;;;;5010765;28;20044;-77
2022/01/19 04:01:52;;;;;;;91.00;39.95;;;4.10;99.90;;;;;;4995089;28;20125;-77
2022/01/19 04:09:22;;;;;;;70.10;35.15;;;4.10;99.90;;;;;;4977602;28;20115;-77
2022/01/19 04:11:48;;;;;;;73.50;35.83;;;4.10;99.90;;;;;;4994885;28;20038;-77
2022/01/19 04:14:24;;;;;;;75.22;36.10;;;4.00;99.90;;;;;;4979260;28;20500;-77
2022/01/19 04:16:51;;;;;;;;;;;4.10;99.90;;;;;;4979790;28;20061;-76
2022/01/19 04:19:43;;;;;;;70.03;34.63;;;4.10;99.90;;;;;;5012076;28;20008;-77
2022/01/19 04:22:04;;;;;;;75.25;33.08;;;4.00;99.90;;;;;;4996896;28;20132;-77
2022/01/19 04:24:30;;;;;;;62.15;33.20;;;3.90;99.90;;;;;;4996911;28;20050;-77
2022/01/19 04:26:58;;;;;;;79.43;36.22;;;3.90;99.90;;;;;;4995212;28;20089;-77
2022/01/19 04:29:25;;;;;;;61.35;32.50;;;3.90;99.90;;;;;;4996998;28;20057;-76
2022/01/19 04:31:51;;;;;;;67.60;32.22;;;3.90;99.90;;;;;;4976695;28;20050;-78
2022/01/19 04:34:18;;;;;;;66.57;32.65;;;3.90;99.90;;;;;;4996891;28;20516;-77
2022/01/19 04:47:59;;;;;;;75.55;37.05;;;3.80;99.90;;;;;;5013455;28;20067;-76
2022/01/19 05:01:42;;;;;;;68.05;34.20;;;3.80;99.90;;;;;;4955041;28;20047;-76
2022/01/19 05:06:38;;;;;;;71.07;35.33;;;3.80;99.90;;;;;;4976555;28;20094;-77
2022/01/19 05:09:56;;;;;;;72.13;34.63;;;3.80;99.90;;;;;;4974481;28;20065;-76
2022/01/19 05:14:37;;;;;;;71.15;35.10;;;3.80;99.90;;;;;;5010576;28;20125;-76
2022/01/19 05:17:03;;;;;;;69.75;33.53;;;3.80;99.90;;;;;;4993674;28;20172;-77
2022/01/19 05:19:29;;;;;;;67.82;34.92;;;3.80;99.90;;;;;;4991042;28;20466;-77
2022/01/19 05:21:54;;;;;;;74.25;37.05;;;3.80;99.90;;;;;;5008224;28;20072;-77
2022/01/19 05:24:20;;;;;;;64.25;32.67;;;3.80;99.90;;;;;;5009064;28;20049;-76
2022/01/19 05:26:46;;;;;;;68.82;34.92;;;3.70;99.90;;;;;;4977548;28;20082;-77
2022/01/19 05:29:12;;;;;;;68.30;35.15;;;3.80;99.90;;;;;;4996365;28;20042;-77
2022/01/19 05:31:38;;;;;;;61.38;33.70;;;3.80;99.90;;;;;;5011570;28;20040;-77
2022/01/19 05:34:04;;;;;;;70.30;34.72;;;3.80;99.90;;;;;;5008229;28;20150;-76
2022/01/19 05:36:30;;;;;;;61.38;33.88;;;3.80;99.90;;;;;;5010073;28;20050;-77
2022/01/19 05:38:56;;;;;;;59.67;34.08;;;3.80;99.90;;;;;;4994100;28;20481;-76
2022/01/19 05:41:22;;;;;;;67.38;35.08;;;3.80;99.90;;;;;;4975143;28;20492;-76
2022/01/19 05:43:48;;;;;;;62.60;34.80;;;3.80;99.90;;;;;;4991511;28;20038;-76
2022/01/19 05:46:14;;;;;;;72.75;36.10;;;3.80;99.90;;;;;;4974893;28;20046;-76
2022/01/19 05:48:39;;;;;;;63.42;35.03;;;3.80;99.90;;;;;;4973039;28;20388;-76
2022/01/19 05:51:05;;;;;;;64.82;33.65;;;3.90;99.90;;;;;;4978487;28;20112;-76
2022/01/19 05:53:31;;;;;;;65.75;35.33;;;3.80;99.90;;;;;;4992588;28;20117;-75
2022/01/19 05:55:57;;;;;;;65.82;34.25;;;3.90;99.90;;;;;;4991047;28;20081;-75
2022/01/19 05:58:23;;;;;;;67.50;35.30;;;3.90;99.90;;;;;;4994913;28;20069;-75
2022/01/19 06:00:48;;;;;;;61.50;34.80;;;3.90;99.90;;;;;;5007528;28;20132;-76
2022/01/19 06:03:15;;;;;;;64.47;35.53;;;3.90;99.90;;;;;;4993832;28;20030;-75
2022/01/19 06:05:41;;;;;;;68.40;34.70;;;3.80;99.90;;;;;;5007118;28;20084;-76
2022/01/19 06:10:48;;;;;;;68.60;35.58;;;3.90;99.90;;;;;;5010135;28;20046;-76
2022/01/19 06:13:16;;;;;;;63.45;35.15;;;3.90;99.90;;;;;;4977948;28;20061;-75
2022/01/19 06:15:43;;;;;;;72.57;36.00;;;3.90;99.90;;;;;;5007265;28;20441;-76
2022/01/19 06:18:09;;;;;;;64.88;33.72;;;3.90;99.90;;;;;;5004288;28;20038;-75
2022/01/19 06:20:35;;;;;;;61.75;34.85;;;3.90;99.90;;;;;;4973858;28;20482;-76
2022/01/19 06:23:00;;;;;;;67.90;35.33;;;3.80;99.90;;;;;;4995951;28;20143;-75
2022/01/19 06:25:26;;;;;;;62.10;33.25;;;3.80;99.90;;;;;;4978173;28;20052;-75
2022/01/19 06:27:52;;;;;;;61.28;32.63;;;3.80;99.90;;;;;;4975602;28;21545;-76
2022/01/19 06:30:17;;;;;;;63.15;33.88;;;3.80;99.90;;;;;;4996299;28;20152;-75
2022/01/19 06:32:43;;;;;;;62.15;35.25;;;3.90;99.90;;;;;;5006985;28;20057;-75
2022/01/19 06:35:09;;;;;;;70.20;35.88;;;3.90;99.90;;;;;;4992885;28;20038;-76
2022/01/19 06:37:35;;;;;;;59.03;35.50;;;3.90;99.90;;;;;;4980989;28;20086;-75
2022/01/19 06:40:02;;;;;;;60.65;34.17;;;3.90;99.90;;;;;;4999687;28;20041;-75
2022/01/19 06:42:29;;;;;;;67.63;33.70;;;3.90;99.90;;;;;;4993856;28;20049;-75
2022/01/19 06:44:55;;;;;;;70.22;35.22;;;3.90;99.90;;;;;;4997720;28;20413;-75
2022/01/19 06:47:20;;;;;;;60.58;34.08;;;3.90;99.90;;;;;;4995214;28;20037;-76
2022/01/19 06:49:46;;;;;;;68.10;36.30;;;3.90;99.90;;;;;;4996997;28;20663;-76
2022/01/19 06:52:11;;;;;;;67.15;35.42;;;3.90;99.90;;;;;;4995350;28;20036;-75
2022/01/19 06:54:37;;;;;;;61.20;34.35;;;3.90;99.90;;;;;;4978196;28;20432;-75
2022/01/19 06:57:03;;;;;;;59.65;34.95;;;3.90;99.90;;;;;;4978055;28;20045;-75
2022/01/19 06:59:29;;;;;;;66.63;34.15;;;3.90;99.90;;;;;;4989113;28;20050;-75
2022/01/19 07:01:54;;;;;;;65.15;35.38;;;3.90;99.90;;;;;;4976740;28;20106;-75
2022/01/19 07:04:20;;;;;;;62.75;34.00;;;3.90;99.90;;;;;;5011503;28;20042;-75
2022/01/19 07:06:46;;;;;;;70.43;36.60;;;3.90;99.90;;;;;;4996469;28;20632;-75
2022/01/19 07:09:11;;;;;;;67.65;35.50;;;3.90;99.90;;;;;;4995468;28;20109;-75
2022/01/19 07:11:37;;;;;;;57.78;34.45;;;3.90;99.90;;;;;;4979569;28;20034;-75
2022/01/19 07:14:08;;;;;;;70.35;35.30;;;3.90;99.90;;;;;;4996700;28;20069;-75
2022/01/19 07:16:34;;;;;;;67.13;34.15;;;3.90;99.90;;;;;;4995681;28;20076;-75
2022/01/19 07:19:00;;;;;;;64.78;34.03;;;3.90;99.90;;;;;;4981992;28;20422;-75
2022/01/19 07:21:26;;;;;;;64.70;36.53;;;3.90;99.90;;;;;;5019784;28;20057;-75
2022/01/19 07:23:52;;;;;;;61.78;36.20;;;3.90;99.90;;;;;;4997428;28;21817;-75
2022/01/19 07:26:17;;;;;;;57.72;32.78;;;3.90;99.90;;;;;;4978708;28;20073;-75
2022/01/19 07:28:43;;;;;;;66.63;36.58;;;3.90;99.90;;;;;;4994285;28;20047;-75
2022/01/19 07:31:09;;;;;;;61.20;35.00;;;3.90;99.90;;;;;;4995316;28;20049;-75
2022/01/19 07:33:35;;;;;;;60.70;34.50;;;3.90;99.90;;;;;;4988587;28;20042;-76
2022/01/19 07:36:01;;;;;;;60.70;33.40;;;4.00;99.90;;;;;;4989500;28;20042;-76
2022/01/19 07:38:26;;;;;;;58.58;35.30;;;4.00;99.90;;;;;;4980433;28;20140;-76
2022/01/19 07:40:53;;;;;;;62.47;34.72;;;3.90;99.90;;;;;;4980484;28;20061;-76
2022/01/19 07:43:19;;;;;;;60.17;33.03;;;4.00;99.90;;;;;;4994015;28;20034;-76
2022/01/19 07:45:45;;;;;;;55.70;32.75;;;4.00;99.90;;;;;;4975393;28;20567;-76
2022/01/19 07:48:11;;;;;;;51.72;32.55;;;4.00;99.90;;;;;;4977101;28;20053;-76
2022/01/19 07:50:38;;;;;;;56.80;32.83;;;3.90;99.90;;;;;;4975376;28;20030;-76
2022/01/19 07:53:04;;;;;;;59.97;31.52;;;4.00;99.90;;;;;;4990095;28;20034;-76
2022/01/19 07:55:30;;;;;;;50.53;31.23;;;4.00;99.90;;;;;;4991298;28;20496;-76
2022/01/19 07:57:56;;;;;;;57.28;31.63;;;3.90;99.90;;;;;;4990520;28;20057;-76
2022/01/19 08:00:22;;;;;;;49.53;30.38;;;3.90;99.90;;;;;;4993724;28;20050;-76
2022/01/19 08:02:49;;;;;;;54.40;32.22;;;4.00;99.90;;;;;;4973212;28;20048;-76
2022/01/19 08:05:16;;;;;;;52.38;29.73;;;3.90;99.90;;;;;;5007092;28;20090;-76
2022/01/19 08:07:43;;;;;;;50.10;30.15;;;3.90;99.90;;;;;;5011192;28;20527;-76
2022/01/19 08:10:10;;;;;;;53.80;31.15;;;3.80;99.90;;;;;;5007300;28;20039;-76
2022/01/19 08:12:37;;;;;;;53.45;30.27;;;3.90;99.90;;;;;;4968948;28;20046;-75
2022/01/19 08:15:04;;;;;;;55.60;30.45;;;3.80;99.90;;;;;;4975341;28;20081;-76
2022/01/19 08:17:30;;;;;;;49.72;30.38;;;3.80;99.90;;;;;;4991972;28;20046;-75
2022/01/19 08:19:57;;;;;;;52.85;31.40;;;3.80;99.90;;;;;;4996396;28;20046;-76
2022/01/19 08:22:23;;;;;;;54.03;30.83;;;3.80;99.90;;;;;;4993511;28;20133;-76
2022/01/19 08:24:50;;;;;;;50.45;30.08;;;3.80;99.90;;;;;;4992145;28;20052;-76
2022/01/19 08:27:16;;;;;;;52.88;30.50;;;3.80;99.90;;;;;;4974534;28;20038;-76
2022/01/19 08:29:42;;;;;;;52.63;30.13;;;3.80;99.90;;;;;;5006600;28;20057;-75
2022/01/19 08:32:08;;;;;;;49.88;30.73;;;3.80;99.90;;;;;;4992447;28;20092;-76
2022/01/19 08:34:34;;;;;;;55.03;30.42;;;3.80;99.90;;;;;;4993914;28;20038;-76
2022/01/19 08:37:00;;;;;;;53.90;29.23;;;3.80;99.90;;;;;;5005093;28;20046;-75
2022/01/19 08:39:26;;;;;;;56.25;30.48;;;3.80;99.90;;;;;;4988576;28;20510;-76
2022/01/19 08:41:53;;;;;;;54.25;31.08;;;3.80;99.90;;;;;;4993578;28;20108;-76
2022/01/19 08:44:19;;;;;;;53.90;31.90;;;3.80;99.90;;;;;;4970160;28;20042;-76
2022/01/19 08:46:45;;;;;;;51.28;30.02;;;3.80;99.90;;;;;;4992072;28;20046;-76
2022/01/19 08:49:12;;;;;;;52.80;32.00;;;3.80;99.90;;;;;;4995180;28;20034;-76
2022/01/19 08:51:38;;;;;;;54.83;32.08;;;3.90;99.90;;;;;;4975525;28;20038;-76
2022/01/19 08:54:04;;;;;;;53.45;31.35;;;3.90;99.90;;;;;;4993034;28;20038;-76
2022/01/19 08:56:30;;;;;;;47.55;30.05;;;3.90;99.90;;;;;;4992827;28;20035;-76
2022/01/19 08:58:56;;;;;;;52.38;29.20;;;4.00;99.90;;;;;;4990935;28;20030;-76
2022/01/19 09:01:22;;;;;;;55.45;31.67;;;4.00;99.90;;;;;;4997300;28;20125;-76
2022/01/19 09:03:48;;;;;;;48.35;30.80;;;4.00;99.90;;;;;;4992673;28;20046;-76
2022/01/19 09:06:19;;;;;;;49.45;30.13;;;4.00;99.90;;;;;;4977645;28;20057;-76
2022/01/19 09:08:45;;;;;;;49.95;30.80;;;4.00;99.90;;;;;;5009642;28;20074;-76
2022/01/19 09:11:12;;;;;;;53.80;29.92;;;4.00;99.90;;;;;;4990159;28;20034;-76
2022/01/19 09:13:38;;;;;;;56.60;32.28;;;4.00;99.90;;;;;;4993074;28;20483;-76
2022/01/19 09:16:10;;;;;;;50.47;31.13;;;4.00;99.90;;;;;;5008149;28;20121;-76
2022/01/19 09:18:36;;;;;;;51.78;30.73;;;4.10;99.90;;;;;;4992032;28;20496;-76
2022/01/19 09:21:02;;;;;;;48.17;29.85;;;4.10;99.90;;;;;;5009976;28;20067;-76
2022/01/19 09:23:28;;;;;;;50.53;31.75;;;4.10;99.90;;;;;;4974000;28;20145;-75
2022/01/19 09:25:53;;;;;;;54.45;31.27;;;4.10;99.90;;;;;;5004790;28;20034;-76
2022/01/19 09:28:19;;;;;;;44.97;29.15;;;4.10;99.90;;;;;;4991258;28;20108;-76
2022/01/19 09:30:45;;;;;;;52.78;32.13;;;4.10;99.90;;;;;;4977604;28;20038;-76
2022/01/19 09:33:19;;;;;;;54.13;33.30;;;4.20;99.90;;;;;;4993754;28;20048;-76
2022/01/19 09:38:27;;;;;;;53.35;31.63;;;4.20;99.90;;;;;;4987694;28;20039;-76
2022/01/19 09:40:54;;;;;;;50.92;32.03;;;4.10;99.90;;;;;;4989558;28;20060;-76
2022/01/19 09:43:23;;;;;;;56.83;32.50;;;4.20;99.90;;;;;;4993331;28;20141;-76
2022/01/19 09:45:50;;;;;;;52.50;33.60;;;4.20;99.90;;;;;;4990459;28;20256;-76
2022/01/19 09:48:16;;;;;;;52.70;32.35;;;4.20;99.90;;;;;;4991546;28;20046;-76
2022/01/19 09:50:42;;;;;;;53.67;33.72;;;4.20;99.90;;;;;;5009785;28;20053;-76
2022/01/19 09:53:08;;;;;;;53.42;34.58;;;4.20;99.90;;;;;;4974870;28;20117;-76
2022/01/19 09:55:36;;;;;;;56.30;33.45;;;4.20;99.90;;;;;;4955676;28;20181;-76
2022/01/19 09:58:01;;;;;;;52.88;34.22;;;4.20;99.90;;;;;;4988774;28;20038;-76
2022/01/19 10:00:27;;;;;;;49.20;33.63;;;4.20;99.90;;;;;;4986687;28;20042;-75
2022/01/19 10:03:16;;;;;;;56.05;34.08;;;4.20;99.90;;;;;;4986349;28;20084;-76
2022/01/19 10:05:58;;;;;;;53.47;34.88;;;4.30;99.90;;;;;;4971326;28;20054;-76
2022/01/19 10:08:28;;;;;;;59.38;34.40;;;4.20;99.90;;;;;;4986784;28;20094;-76
2022/01/19 10:11:27;;;;;;;54.20;34.53;;;4.30;99.90;;;;;;4970537;28;20654;-76
2022/01/19 10:17:00;;;;;;;52.47;33.80;;;4.30;99.90;;;;;;4999484;28;20196;-77
2022/01/19 10:19:46;;;;;;;54.65;33.60;;;4.40;99.90;;;;;;4999308;28;20717;-76
2022/01/19 10:22:25;;;;;;;55.63;34.88;;;4.40;99.90;;;;;;4975617;28;20046;-76
2022/01/19 10:25:04;;;;;;;52.35;32.92;;;4.40;99.90;;;;;;4995538;28;20046;-76
2022/01/19 10:27:33;;;;;;;56.45;36.17;;;4.50;99.90;;;;;;5003697;28;20082;-76
2022/01/19 10:30:02;;;;;;;55.45;34.22;;;4.50;99.90;;;;;;4980192;28;20084;-76
2022/01/19 10:32:35;;;;;;;51.08;35.33;;;4.50;99.90;;;;;;5018295;28;20547;-76
2022/01/19 10:35:29;;;;;;;52.50;33.08;;;4.50;99.90;;;;;;4996580;28;20046;-76
2022/01/19 10:38:13;;;;;;;56.05;35.15;;;4.50;99.90;;;;;;5010703;28;20568;-77
2022/01/19 10:40:43;;;;;;;55.30;33.47;;;4.60;99.90;;;;;;4986320;28;20133;-76
2022/01/19 10:43:28;;;;;;;56.30;34.83;;;4.60;99.90;;;;;;4993477;28;20034;-76
2022/01/19 10:45:56;;;;;;;55.30;35.03;;;4.50;99.90;;;;;;4979944;28;20046;-77
2022/01/19 10:48:34;;;;;;;58.75;36.72;;;4.50;99.90;;;;;;4978058;28;20078;-76
2022/01/19 10:51:12;;;;;;;58.05;35.70;;;4.60;99.90;;;;;;4997698;28;20034;-76
2022/01/19 10:53:40;;;;;;;56.40;37.10;;;4.60;99.90;;;;;;4994451;28;20031;-76
2022/01/19 10:56:07;;;;;;;54.47;37.75;;;4.60;99.90;;;;;;5012659;28;20045;-76
2022/01/19 10:58:51;;;;;;;63.83;39.63;;;4.70;99.90;;;;;;4979780;28;20038;-77
2022/01/19 11:01:39;;;;;;;55.22;38.53;;;4.70;99.90;;;;;;4990076;28;20043;-76
2022/01/19 11:04:33;;;;;;;62.90;39.03;;;4.70;99.90;;;;;;4995665;28;20048;-76
2022/01/19 11:07:08;;;;;;;57.22;38.22;;;4.70;99.90;;;;;;5013491;28;20057;-76
2022/01/19 11:09:45;;;;;;;62.15;37.22;;;4.70;99.90;;;;;;4992081;28;20072;-76
2022/01/19 11:12:16;;;;;;;64.82;41.42;;;4.60;99.90;;;;;;5009899;28;20072;-77
2022/01/19 11:14:42;;;;;;;63.72;40.10;;;4.70;99.90;;;;;;4995251;28;20042;-77
2022/01/19 11:17:12;;;;;;;61.72;39.63;;;4.70;99.90;;;;;;5009866;28;20042;-77
2022/01/19 11:19:39;;;;;;;66.82;41.40;;;4.70;99.90;;;;;;5007801;28;20046;-77
2022/01/19 11:22:39;;;;;;;65.60;41.13;;;4.70;99.90;;;;;;4993251;28;20386;-77
2022/01/19 11:25:22;;;;;;;71.10;42.40;;;4.70;99.90;;;;;;4976146;28;20057;-77
2022/01/19 11:27:49;;;;;;;71.20;42.92;;;4.70;99.90;;;;;;5003101;28;20078;-77
2022/01/19 11:30:27;;;;;;;74.65;44.22;;;4.70;99.90;;;;;;5009756;28;20520;-76
2022/01/19 11:33:26;;;;;;;70.00;44.78;;;4.70;99.90;;;;;;5008580;28;20057;-76
2022/01/19 11:35:57;;;;;;;76.80;45.65;;;4.70;99.90;;;;;;4991214;28;20041;-76
2022/01/19 11:38:44;;;;;;;77.63;44.95;;;4.70;99.90;;;;;;4997606;28;20402;-76
2022/01/19 11:41:10;;;;;;;74.57;46.40;;;4.70;99.90;;;;;;4991584;28;20053;-76
2022/01/19 11:43:39;;;;;;;79.85;47.55;;;4.70;99.90;;;;;;4974900;28;20050;-76
2022/01/19 11:46:24;;;;;;;78.85;47.78;;;4.70;99.90;;;;;;4974986;28;20043;-77
2022/01/19 11:48:51;;;;;;;80.97;47.30;;;4.70;99.90;;;;;;4974064;28;20074;-76
2022/01/19 11:51:34;;;;;;;86.95;48.72;;;4.70;99.90;;;;;;4990699;28;20030;-76
2022/01/19 11:54:17;;;;;;;82.38;48.72;;;4.70;99.90;;;;;;4990259;28;20038;-76
2022/01/19 11:57:04;;;;;;;87.82;49.38;;;4.90;99.90;;;;;;4991196;28;20056;-76
2022/01/19 11:59:43;;;;;;;85.85;49.10;;;4.80;99.90;;;;;;4974787;28;20124;-76
2022/01/19 12:02:26;;;;;;;79.35;48.85;;;4.90;99.90;;;;;;4986856;28;20121;-76
2022/01/19 12:04:59;;;;;;;84.53;48.08;;;4.90;99.90;;;;;;4975152;28;20119;-76
2022/01/19 12:07:52;;;;;;;81.53;51.38;;;4.90;99.90;;;;;;4989135;28;20137;-76
2022/01/19 12:10:37;;;;;;;79.68;48.15;;;4.90;99.90;;;;;;4977867;28;20042;-76
2022/01/19 12:16:10;;;;;;;84.13;49.60;;;5.00;99.90;;;;;;4975629;28;20077;-76
2022/01/19 12:18:49;;;;;;;84.40;50.28;;;5.10;99.90;;;;;;4992729;28;20043;-76
2022/01/19 12:21:35;;;;;;;86.68;48.35;;;5.10;99.90;;;;;;4990240;28;20092;-76
2022/01/19 12:24:19;;;;;;;82.55;48.05;;;5.10;99.90;;;;;;4988668;28;20422;-76
2022/01/19 12:26:58;;;;;;;82.13;48.92;;;5.10;99.90;;;;;;4976735;28;20612;-76
2022/01/19 12:29:36;;;;;;;87.53;50.72;;;5.10;99.90;;;;;;4974012;28;20496;-76
2022/01/19 12:32:15;;;;;;;77.65;47.03;;;5.10;99.90;;;;;;4996133;28;20042;-76
2022/01/19 12:34:53;;;;;;;81.95;47.70;;;5.10;99.90;;;;;;4991651;28;20034;-76
2022/01/19 12:37:33;;;;;;;83.53;48.85;;;5.10;99.90;;;;;;4985796;28;20073;-76
2022/01/19 12:40:24;;;;;;;83.78;48.95;;;5.10;99.90;;;;;;5000978;28;20045;-76
2022/01/19 12:42:54;;;;;;;84.80;47.53;;;5.10;99.90;;;;;;4970549;28;20050;-77
2022/01/19 12:45:35;;;;;;;83.70;47.63;;;5.10;99.90;;;;;;4982985;28;20475;-76
2022/01/19 12:48:03;;;;;;;79.82;47.30;;;5.10;99.90;;;;;;4991526;28;20096;-77
2022/01/19 12:50:29;;;;;;;79.90;48.63;;;5.10;99.90;;;;;;4988242;28;20035;-76
2022/01/19 12:53:00;;;;;;;81.95;48.70;;;5.10;99.90;;;;;;5006220;28;21476;-76
2022/01/19 12:55:29;;;;;;;76.40;46.22;;;5.10;99.90;;;;;;5005041;28;20510;-76
2022/01/19 12:57:57;;;;;;;81.97;47.83;;;5.10;99.90;;;;;;4973308;28;20053;-76
2022/01/19 13:00:26;;;;;;;86.97;48.35;;;5.10;99.90;;;;;;5005270;28;20056;-76
2022/01/19 13:02:52;;;;;;;78.95;48.42;;;5.10;99.90;;;;;;4969621;28;20164;-76
2022/01/19 13:05:20;;;;;;;77.68;46.35;;;5.10;99.90;;;;;;4989365;28;20034;-76
2022/01/19 13:07:52;;;;;;;74.43;46.47;;;5.10;99.90;;;;;;4970994;28;20042;-76
2022/01/19 13:10:44;;;;;;;75.10;47.78;;;5.10;99.90;;;;;;4969940;28;20035;-76
2022/01/19 13:13:13;;;;;;;69.97;45.10;;;5.10;99.90;;;;;;4970955;28;20053;-77
2022/01/19 13:15:49;;;;;;;71.32;45.92;;;5.10;99.90;;;;;;4989453;28;20058;-77
2022/01/19 13:18:30;;;;;;;82.40;47.03;;;5.20;99.90;;;;;;5006266;28;20069;-76
2022/01/19 13:21:02;;;;;;;71.22;44.28;;;5.20;99.90;;;;;;4988920;28;20038;-76
2022/01/19 13:23:30;;;;;;;74.72;45.42;;;5.30;99.90;;;;;;4983308;28;20658;-76
2022/01/19 13:26:03;;;;;;;67.10;42.55;;;5.20;99.90;;;;;;5006201;28;20061;-76
2022/01/19 13:28:30;;;;;;;71.18;43.13;;;5.30;99.90;;;;;;4995005;28;20062;-76
2022/01/19 13:31:13;;;;;;;74.20;42.78;;;5.30;99.90;;;;;;5007165;28;20123;-76
2022/01/19 13:33:40;;;;;;;66.68;41.83;;;5.40;99.90;;;;;;5005732;28;20096;-76
2022/01/19 13:36:07;;;;;;;67.80;42.05;;;5.40;99.90;;;;;;4975663;28;20035;-76
2022/01/19 13:38:34;;;;;;;63.88;40.65;;;5.40;99.90;;;;;;4989795;28;20513;-76
2022/01/19 13:41:08;;;;;;;65.50;38.78;;;5.40;99.90;;;;;;5002593;28;20041;-76
2022/01/19 13:43:39;;;;;;;57.33;37.85;;;5.40;99.90;;;;;;4989302;28;20540;-76
2022/01/19 13:46:18;;;;;;;62.13;39.33;;;5.40;99.90;;;;;;4971081;28;20622;-76
2022/01/19 13:48:46;;;;;;;59.03;36.42;;;5.40;99.90;;;;;;4973685;28;20038;-76
2022/01/19 13:51:14;;;;;;;63.00;38.65;;;5.40;99.90;;;;;;4970121;28;20042;-76
2022/01/19 13:53:41;;;;;;;59.28;37.30;;;5.40;99.90;;;;;;5006843;28;20467;-76
2022/01/19 13:56:10;;;;;;;57.60;35.75;;;5.40;99.90;;;;;;4987013;28;20485;-75
2022/01/19 13:58:43;;;;;;;55.80;36.78;;;5.40;99.90;;;;;;4970751;28;20046;-75
2022/01/19 14:01:14;;;;;;;62.80;37.83;;;5.40;99.90;;;;;;4988824;28;20053;-75
2022/01/19 14:03:49;;;;;;;54.03;35.50;;;5.40;99.90;;;;;;4989570;28;20038;-75
2022/01/19 14:06:38;;;;;;;56.30;35.10;;;5.40;99.90;;;;;;4968745;28;20056;-75
2022/01/19 14:09:31;;;;;;;64.07;36.53;;;5.40;99.90;;;;;;4971091;28;20037;-75
2022/01/19 14:12:10;;;;;;;55.78;35.45;;;5.40;99.90;;;;;;4968454;28;20057;-75
2022/01/19 14:14:48;;;;;;;66.32;35.10;;;5.40;99.90;;;;;;4973397;28;20047;-75
2022/01/19 14:17:37;;;;;;;63.25;36.28;;;5.40;99.90;;;;;;4971515;28;20046;-75
2022/01/19 14:20:12;;;;;;;63.80;38.22;;;5.40;99.90;;;;;;4973976;28;20050;-75
2022/01/19 14:22:38;;;;;;;59.35;36.38;;;5.40;99.90;;;;;;4990529;28;20053;-75